EGUP weather

RAF Sculthorpe
Fakeham, England, United Kingdom

Public forecast

Using degrees Celsius for public forecast. Weather courtesy of forecast.io.

METAR (pilot weather report)

Closest report is RAF Marham, 14.3 nm (26.4 km) SSW. Retrieved 2019/07/21 21:50 UTC (29 minutes ago):

EGYM 212150Z 19009KT CAVOK 18/13 Q1020 BLU

TAF (pilot weather forecast)

Forecast is more than 12 hours old.

Closest forecast is RAF Marham, 14.3 nm (26.4 km) SSW. Retrieved 2019/07/04 18:12 UTC (17 days ago):

TAF TAF EGYM 041707Z 0418/0522 CNL